Time;durP1;ratioP1;P1;durP2;ratioP2;P2;SDS_P1;SDS_P2;PMS_P1;PMS_P2;Temp;Humidity;BMP_temperature;BMP_pressure;BME280_temperature;BME280_humidity;BME280_pressure;Samples;Min_cycle;Max_cycle;Signal;HPM_P1;HPM_P2
2022/01/29 00:00:49;;;;;;;2.67;1.55;;;21.40;34.40;;;;;;5054260;28;20485;-65
2022/01/29 00:03:14;;;;;;;2.67;1.57;;;21.40;34.40;;;;;;5036608;28;20381;-66
2022/01/29 00:05:40;;;;;;;2.20;1.40;;;21.40;34.30;;;;;;5054076;28;21020;-66
2022/01/29 00:08:06;;;;;;;3.10;1.50;;;21.40;34.30;;;;;;5053986;28;20715;-66
2022/01/29 00:10:32;;;;;;;2.30;1.48;;;21.40;34.20;;;;;;5036330;28;20405;-65
2022/01/29 00:12:58;;;;;;;2.70;1.40;;;21.40;34.20;;;;;;5054091;28;20400;-66
2022/01/29 00:15:24;;;;;;;2.53;1.30;;;21.30;34.10;;;;;;5054168;28;20462;-66
2022/01/29 00:17:49;;;;;;;2.47;1.43;;;21.30;34.00;;;;;;5053657;28;20468;-65
2022/01/29 00:20:15;;;;;;;2.00;1.30;;;21.40;34.00;;;;;;5036219;28;20897;-67
2022/01/29 00:22:41;;;;;;;2.08;1.20;;;21.30;34.00;;;;;;5053758;28;20460;-65
2022/01/29 00:25:08;;;;;;;2.00;1.20;;;21.40;33.90;;;;;;5036154;28;20404;-67
2022/01/29 00:27:35;;;;;;;2.73;1.30;;;21.30;33.90;;;;;;5053969;28;20457;-66
2022/01/29 00:30:07;;;;;;;2.00;1.10;;;21.30;33.90;;;;;;5034903;28;20504;-66
2022/01/29 00:32:33;;;;;;;2.60;1.40;;;21.30;33.90;;;;;;5053802;28;20377;-66
2022/01/29 00:34:59;;;;;;;2.25;1.20;;;21.30;34.00;;;;;;5053628;28;20467;-66
2022/01/29 00:37:24;;;;;;;2.50;1.20;;;21.30;33.90;;;;;;5053271;28;20382;-67
2022/01/29 00:39:50;;;;;;;2.03;1.13;;;21.30;33.90;;;;;;5052757;28;20390;-69
2022/01/29 00:42:16;;;;;;;2.40;1.40;;;21.30;33.90;;;;;;5053598;28;20484;-66
2022/01/29 00:44:42;;;;;;;1.67;1.00;;;21.30;33.80;;;;;;5053608;28;20892;-66
2022/01/29 00:47:08;;;;;;;2.38;1.25;;;21.30;33.80;;;;;;5053501;28;20378;-66
2022/01/29 00:49:34;;;;;;;2.20;1.20;;;21.30;33.80;;;;;;5053302;28;20883;-67
2022/01/29 00:52:00;;;;;;;2.15;1.02;;;21.20;33.80;;;;;;5053032;28;20378;-66
2022/01/29 00:54:26;;;;;;;1.50;1.00;;;21.20;33.70;;;;;;5053392;28;20407;-67
2022/01/29 00:56:51;;;;;;;2.10;1.33;;;21.20;33.70;;;;;;5053289;28;20401;-66
2022/01/29 00:59:17;;;;;;;1.90;1.10;;;21.20;33.70;;;;;;5053271;28;20882;-65
2022/01/29 01:01:43;;;;;;;2.50;1.20;;;21.20;33.70;;;;;;5053201;28;20478;-66
2022/01/29 01:04:08;;;;;;;2.03;1.20;;;21.20;33.70;;;;;;5035180;28;20390;-66
2022/01/29 01:06:34;;;;;;;3.00;1.10;;;21.20;33.60;;;;;;5035297;28;20393;-66
2022/01/29 01:09:00;;;;;;;2.57;1.23;;;21.20;33.60;;;;;;5053158;28;20378;-66
2022/01/29 01:11:25;;;;;;;1.63;1.00;;;21.20;33.60;;;;;;5053097;28;20425;-66
2022/01/29 01:13:51;;;;;;;2.40;1.30;;;21.20;33.60;;;;;;5052514;28;20386;-66
2022/01/29 01:16:17;;;;;;;2.00;1.20;;;21.20;33.60;;;;;;5053006;28;20769;-66
2022/01/29 01:18:42;;;;;;;1.70;1.20;;;21.20;33.60;;;;;;5052898;28;20745;-68
2022/01/29 01:21:08;;;;;;;2.38;1.20;;;21.20;33.60;;;;;;5053029;28;20396;-65
2022/01/29 01:23:34;;;;;;;3.37;1.27;;;21.20;33.60;;;;;;5052592;28;20390;-66
2022/01/29 01:26:01;;;;;;;2.72;1.10;;;21.20;33.60;;;;;;5052320;28;20393;-65
2022/01/29 01:28:27;;;;;;;1.70;1.10;;;21.20;33.60;;;;;;5052821;28;20805;-66
2022/01/29 01:30:53;;;;;;;2.70;1.08;;;21.20;33.60;;;;;;5052726;28;20389;-67
2022/01/29 01:33:19;;;;;;;2.20;1.13;;;21.20;33.60;;;;;;5052668;28;20796;-65
2022/01/29 01:35:49;;;;;;;2.10;1.10;;;21.20;33.60;;;;;;5052506;28;20419;-66
2022/01/29 01:38:20;;;;;;;1.70;1.13;;;21.20;33.60;;;;;;5051653;28;20385;-66
2022/01/29 01:40:51;;;;;;;2.55;1.17;;;21.20;33.50;;;;;;5051405;28;20390;-67
2022/01/29 01:43:17;;;;;;;2.47;1.10;;;21.20;33.60;;;;;;5030488;28;20562;-67
2022/01/29 01:45:43;;;;;;;2.22;1.20;;;21.20;33.60;;;;;;5032536;28;20504;-65
2022/01/29 01:48:09;;;;;;;2.47;1.30;;;21.10;33.50;;;;;;5032053;28;20450;-65
2022/01/29 01:50:36;;;;;;;1.85;1.17;;;21.10;33.50;;;;;;5032247;28;20411;-66
2022/01/29 01:53:03;;;;;;;1.90;1.10;;;21.10;33.50;;;;;;5031895;28;20460;-66
2022/01/29 01:55:29;;;;;;;2.55;1.20;;;21.10;33.60;;;;;;5031840;28;20410;-66
2022/01/29 01:57:55;;;;;;;1.95;1.20;;;21.10;33.50;;;;;;5031687;28;20401;-66
2022/01/29 02:00:21;;;;;;;2.33;1.20;;;21.10;33.50;;;;;;5032367;28;20395;-66
2022/01/29 02:02:47;;;;;;;1.77;1.30;;;21.10;34.10;;;;;;5031903;28;20387;-66
2022/01/29 02:05:13;;;;;;;1.97;1.20;;;21.10;33.60;;;;;;5032246;28;20482;-66
2022/01/29 02:07:39;;;;;;;1.52;1.10;;;21.10;33.50;;;;;;5032133;28;20956;-67
2022/01/29 02:10:10;;;;;;;2.03;1.30;;;21.10;33.40;;;;;;5031538;28;20430;-68
2022/01/29 02:12:53;;;;;;;2.30;1.10;;;21.10;33.40;;;;;;5031998;28;20387;-66
2022/01/29 02:15:21;;;;;;;2.80;1.20;;;21.10;33.50;;;;;;5031686;28;20426;-66
2022/01/29 02:17:47;;;;;;;3.23;1.30;;;21.10;33.50;;;;;;5031872;28;20876;-65
2022/01/29 02:20:15;;;;;;;1.92;1.13;;;21.10;33.50;;;;;;5031642;28;20393;-66
2022/01/29 02:22:43;;;;;;;1.85;1.20;;;21.10;33.50;;;;;;5031865;28;20387;-66
2022/01/29 02:25:29;;;;;;;1.98;1.13;;;21.10;33.50;;;;;;5014096;28;20402;-65
2022/01/29 02:27:57;;;;;;;2.35;1.20;;;21.10;34.10;;;;;;5030928;28;20506;-66
2022/01/29 02:30:23;;;;;;;1.70;1.00;;;21.00;33.40;;;;;;5031817;28;20387;-67
2022/01/29 02:32:49;;;;;;;1.60;0.90;;;21.10;33.40;;;;;;5031669;28;20875;-66
2022/01/29 02:35:14;;;;;;;2.67;0.90;;;21.00;33.30;;;;;;5031658;28;20415;-66
2022/01/29 02:37:40;;;;;;;1.60;0.98;;;21.00;33.30;;;;;;5031623;28;20456;-66
2022/01/29 02:40:06;;;;;;;1.97;0.90;;;21.00;33.40;;;;;;5031245;28;20426;-68
2022/01/29 02:42:32;;;;;;;1.50;1.00;;;21.00;33.40;;;;;;5031491;28;20406;-67
2022/01/29 02:44:57;;;;;;;1.80;1.10;;;21.00;33.40;;;;;;5031467;28;20395;-68
2022/01/29 02:47:30;;;;;;;1.67;1.00;;;21.00;34.10;;;;;;5031503;28;20441;-66
2022/01/29 02:49:55;;;;;;;1.52;0.88;;;21.00;33.40;;;;;;5030888;28;20426;-66
2022/01/29 02:52:21;;;;;;;1.60;0.90;;;21.00;33.40;;;;;;5031256;28;20383;-66
2022/01/29 02:54:47;;;;;;;1.80;0.90;;;21.00;33.40;;;;;;5031457;28;20536;-67
2022/01/29 02:57:14;;;;;;;1.53;0.80;;;21.00;33.50;;;;;;5031421;28;20395;-65
2022/01/29 02:59:39;;;;;;;1.30;0.90;;;21.00;33.40;;;;;;5031443;28;20403;-69
2022/01/29 03:02:05;;;;;;;1.50;0.80;;;21.00;33.50;;;;;;5030984;28;20809;-66
2022/01/29 03:04:31;;;;;;;1.33;0.82;;;21.00;33.40;;;;;;5031359;28;20388;-66
2022/01/29 03:06:56;;;;;;;1.30;0.80;;;20.90;33.30;;;;;;5013758;28;20387;-66
2022/01/29 03:09:22;;;;;;;1.40;0.80;;;20.90;33.40;;;;;;5030801;28;20783;-67
2022/01/29 03:11:47;;;;;;;1.47;0.80;;;21.00;33.40;;;;;;5031107;28;20379;-66
2022/01/29 03:14:13;;;;;;;1.60;1.00;;;20.90;33.30;;;;;;5030926;28;20478;-66
2022/01/29 03:16:38;;;;;;;1.47;0.90;;;20.90;33.20;;;;;;5031310;28;20732;-66
2022/01/29 03:19:04;;;;;;;2.17;0.90;;;20.90;33.30;;;;;;5031326;28;20383;-66
2022/01/29 03:21:30;;;;;;;1.48;0.90;;;20.90;33.30;;;;;;5031143;28;20407;-65
2022/01/29 03:23:55;;;;;;;1.80;1.00;;;20.90;33.30;;;;;;5030657;28;20482;-67
2022/01/29 03:26:21;;;;;;;1.63;0.90;;;20.90;33.40;;;;;;5031122;28;20391;-66
2022/01/29 03:28:47;;;;;;;1.87;0.90;;;20.90;33.30;;;;;;5031114;28;20399;-66
2022/01/29 03:31:12;;;;;;;1.90;0.90;;;20.90;33.30;;;;;;5031176;28;20391;-66
2022/01/29 03:33:38;;;;;;;1.67;1.00;;;20.90;33.30;;;;;;5013416;28;20402;-66
2022/01/29 03:36:05;;;;;;;2.00;0.90;;;20.90;33.30;;;;;;5030705;28;20890;-66
2022/01/29 03:38:31;;;;;;;1.67;0.90;;;20.90;33.20;;;;;;5029814;28;20391;-65
2022/01/29 03:40:58;;;;;;;1.80;0.90;;;20.90;33.30;;;;;;5013300;28;20756;-65
2022/01/29 03:43:31;;;;;;;1.95;1.10;;;20.90;33.30;;;;;;5031101;28;20391;-67
2022/01/29 03:45:57;;;;;;;1.38;0.88;;;20.90;33.30;;;;;;5030492;28;20387;-67
2022/01/29 03:48:23;;;;;;;2.83;1.00;;;20.90;33.20;;;;;;5030973;28;20406;-66
2022/01/29 03:50:49;;;;;;;1.45;0.80;;;20.90;33.20;;;;;;5030830;28;20418;-66
2022/01/29 03:53:15;;;;;;;1.40;0.80;;;20.90;33.20;;;;;;5031007;28;20391;-66
2022/01/29 03:55:40;;;;;;;1.65;1.00;;;20.80;33.20;;;;;;5030758;28;20757;-68
2022/01/29 03:58:06;;;;;;;1.75;0.90;;;20.90;33.20;;;;;;5029125;28;20387;-66
2022/01/29 04:00:32;;;;;;;1.77;1.00;;;20.80;33.20;;;;;;5031008;28;20426;-66
2022/01/29 04:02:57;;;;;;;1.80;0.90;;;20.80;33.20;;;;;;5030831;28;21034;-66
2022/01/29 04:05:26;;;;;;;1.40;0.90;;;20.80;33.20;;;;;;5033715;28;20433;-66
2022/01/29 04:07:51;;;;;;;2.17;1.17;;;20.80;33.20;;;;;;5034292;28;20482;-66
2022/01/29 04:10:19;;;;;;;1.60;0.93;;;20.80;33.30;;;;;;5034008;28;20479;-68
2022/01/29 04:12:48;;;;;;;1.52;0.88;;;20.80;33.30;;;;;;5034234;28;20453;-66
2022/01/29 04:15:14;;;;;;;1.55;0.95;;;20.80;33.30;;;;;;5034295;28;20415;-66
2022/01/29 04:17:39;;;;;;;1.60;0.95;;;20.80;33.30;;;;;;5034191;28;20448;-67
2022/01/29 04:20:06;;;;;;;1.70;0.90;;;20.80;33.30;;;;;;5033767;28;20898;-66
2022/01/29 04:22:32;;;;;;;1.67;0.80;;;20.80;33.20;;;;;;5034222;28;20482;-66
2022/01/29 04:24:57;;;;;;;1.57;0.80;;;20.80;33.20;;;;;;5033440;28;20498;-66
2022/01/29 04:27:33;;;;;;;1.73;1.00;;;20.80;33.20;;;;;;5033898;28;20445;-66
2022/01/29 04:30:01;;;;;;;1.67;0.80;;;20.80;33.20;;;;;;5033748;28;20395;-66
2022/01/29 04:35:10;;;;;;;1.10;0.70;;;20.80;33.20;;;;;;5033867;28;20426;-66
2022/01/29 04:37:36;;;;;;;1.50;0.87;;;20.80;33.10;;;;;;5033848;28;20755;-65
2022/01/29 04:40:03;;;;;;;1.23;0.80;;;20.80;33.20;;;;;;5033359;28;20395;-66
2022/01/29 04:42:29;;;;;;;1.55;0.80;;;20.80;33.20;;;;;;5033826;28;20391;-66
2022/01/29 04:44:54;;;;;;;1.70;0.90;;;20.80;33.20;;;;;;5033774;28;20422;-65
2022/01/29 04:47:20;;;;;;;2.30;0.90;;;20.80;33.20;;;;;;5033651;28;20875;-65
2022/01/29 04:49:46;;;;;;;1.20;0.80;;;20.80;33.20;;;;;;5033371;28;20411;-65
2022/01/29 04:52:11;;;;;;;2.03;0.90;;;20.80;33.20;;;;;;5033083;28;20419;-65
2022/01/29 04:54:37;;;;;;;1.70;0.87;;;20.80;33.20;;;;;;5033472;28;20500;-67
2022/01/29 04:57:03;;;;;;;1.33;0.75;;;20.80;33.20;;;;;;5033518;28;20810;-65
2022/01/29 04:59:28;;;;;;;1.50;0.80;;;20.80;33.10;;;;;;5015782;28;20445;-65
2022/01/29 05:01:54;;;;;;;1.50;0.73;;;20.80;33.10;;;;;;5033461;28;20391;-65
2022/01/29 05:04:20;;;;;;;1.20;0.70;;;20.80;33.10;;;;;;5033140;28;20398;-66
2022/01/29 05:06:45;;;;;;;1.50;0.70;;;20.70;33.00;;;;;;5033307;28;20863;-66
2022/01/29 05:09:11;;;;;;;1.30;0.70;;;20.70;33.00;;;;;;5033409;28;20449;-65
2022/01/29 05:11:37;;;;;;;2.33;0.85;;;20.70;33.00;;;;;;5033234;28;20391;-66
2022/01/29 05:14:06;;;;;;;2.22;1.00;;;20.70;33.00;;;;;;5032577;28;20387;-66
2022/01/29 05:27:19;;;;;;;1.90;0.80;;;20.70;33.10;;;;;;5033269;28;20477;-65
2022/01/29 05:29:45;;;;;;;1.40;0.90;;;20.70;33.10;;;;;;5032928;28;20478;-66
2022/01/29 05:32:12;;;;;;;2.25;0.90;;;20.70;33.20;;;;;;5032520;28;20415;-66
2022/01/29 05:34:38;;;;;;;1.40;0.90;;;20.70;33.20;;;;;;5032714;28;20407;-65
2022/01/29 05:37:04;;;;;;;2.25;0.90;;;20.70;33.20;;;;;;5032761;28;20395;-67
2022/01/29 05:39:30;;;;;;;1.30;0.80;;;20.70;33.20;;;;;;5032353;28;20392;-65
2022/01/29 05:41:57;;;;;;;1.60;0.90;;;20.70;33.20;;;;;;5032163;28;20417;-65
2022/01/29 05:44:23;;;;;;;1.60;0.90;;;20.70;33.20;;;;;;5031044;28;20395;-65
2022/01/29 05:46:48;;;;;;;1.25;0.85;;;20.70;33.20;;;;;;5032584;28;20396;-66
2022/01/29 05:49:15;;;;;;;1.43;0.80;;;20.60;33.00;;;;;;5032382;28;20399;-67
2022/01/29 05:51:40;;;;;;;1.33;0.80;;;20.60;33.20;;;;;;5032471;28;20431;-66
2022/01/29 05:54:06;;;;;;;2.17;1.00;;;20.60;33.20;;;;;;5031902;28;20441;-65
2022/01/29 05:56:32;;;;;;;1.60;0.85;;;20.60;33.90;;;;;;5032435;28;20403;-68
2022/01/29 05:58:57;;;;;;;1.53;0.70;;;20.60;33.60;;;;;;5031086;28;20388;-66
2022/01/29 06:01:24;;;;;;;2.67;1.00;;;20.60;33.50;;;;;;5031089;28;20486;-66
2022/01/29 06:03:49;;;;;;;3.10;0.80;;;20.60;33.30;;;;;;5032044;28;20475;-66
2022/01/29 06:06:15;;;;;;;2.67;0.90;;;20.60;33.30;;;;;;5031854;28;20387;-66
2022/01/29 06:08:41;;;;;;;2.00;0.90;;;20.60;33.20;;;;;;5032132;28;20457;-66
2022/01/29 06:11:06;;;;;;;1.57;0.87;;;20.60;33.30;;;;;;5032169;28;20383;-65
2022/01/29 06:13:32;;;;;;;1.20;0.77;;;20.60;33.30;;;;;;5032131;28;20391;-66
2022/01/29 06:16:00;;;;;;;1.52;0.85;;;20.60;33.40;;;;;;5032001;28;20415;-66
2022/01/29 06:18:26;;;;;;;2.53;0.80;;;20.60;33.40;;;;;;5031769;28;20790;-66
2022/01/29 06:20:58;;;;;;;1.63;0.90;;;20.60;33.50;;;;;;5014260;28;20399;-66
2022/01/29 06:23:32;;;;;;;2.07;0.90;;;20.60;33.50;;;;;;5031939;28;20844;-66
2022/01/29 06:25:58;;;;;;;1.70;0.90;;;20.60;33.50;;;;;;5031517;28;20452;-67
2022/01/29 06:28:24;;;;;;;2.15;0.73;;;20.60;33.50;;;;;;5031115;28;20383;-65
2022/01/29 06:30:50;;;;;;;1.90;1.02;;;20.60;33.40;;;;;;5031712;28;20721;-64
2022/01/29 06:33:15;;;;;;;2.20;1.10;;;20.60;34.00;;;;;;5031579;28;20383;-65
2022/01/29 06:35:43;;;;;;;2.28;1.10;;;20.70;34.10;;;;;;5031575;28;20772;-63
2022/01/29 06:38:10;;;;;;;2.60;1.60;;;20.80;33.60;;;;;;5030511;28;20387;-65
2022/01/29 06:40:36;;;;;;;3.28;1.35;;;20.70;32.30;;;;;;5031329;28;20387;-64
2022/01/29 06:43:04;;;;;;;2.10;1.30;;;20.50;33.40;;;;;;5031645;28;20395;-65
2022/01/29 06:45:33;;;;;;;3.45;1.40;;;20.50;32.90;;;;;;5031335;28;20399;-64
2022/01/29 06:47:59;;;;;;;2.20;1.20;;;20.40;33.00;;;;;;5031661;28;20439;-64
2022/01/29 06:50:25;;;;;;;2.17;1.20;;;20.40;33.30;;;;;;5030992;28;20418;-67
2022/01/29 06:52:51;;;;;;;2.30;1.30;;;20.40;33.30;;;;;;5031447;28;20401;-63
2022/01/29 06:55:17;;;;;;;3.47;1.30;;;20.40;33.70;;;;;;5031388;28;20455;-67
2022/01/29 06:57:43;;;;;;;4.32;1.40;;;20.40;33.30;;;;;;5031336;28;20747;-63
2022/01/29 07:00:09;;;;;;;2.73;1.40;;;20.40;33.70;;;;;;5031099;28;20402;-62
2022/01/29 07:02:36;;;;;;;2.92;1.40;;;20.40;34.10;;;;;;5031450;28;20406;-67
2022/01/29 07:05:03;;;;;;;14.10;2.78;;;20.50;34.00;;;;;;5031266;28;20444;-67
2022/01/29 07:07:29;;;;;;;14.05;2.80;;;20.50;34.80;;;;;;5045877;28;20390;-65
2022/01/29 07:09:55;;;;;;;4.80;1.90;;;20.60;35.30;;;;;;5050879;28;20394;-69
2022/01/29 07:12:22;;;;;;;9.07;2.50;;;20.60;34.80;;;;;;5046551;28;20500;-68
2022/01/29 07:14:49;;;;;;;9.25;1.90;;;20.60;34.50;;;;;;5050063;28;20409;-73
2022/01/29 07:17:18;;;;;;;11.93;1.90;;;20.60;34.90;;;;;;5034207;28;20401;-66
2022/01/29 07:19:45;;;;;;;10.70;2.30;;;20.60;35.40;;;;;;5049516;28;20419;-66
2022/01/29 07:22:12;;;;;;;8.13;1.80;;;20.70;35.10;;;;;;5047837;28;20392;-67
2022/01/29 07:24:38;;;;;;;8.90;2.55;;;20.70;34.90;;;;;;5051154;28;20749;-66
2022/01/29 07:27:04;;;;;;;8.23;2.03;;;20.80;35.10;;;;;;5050909;28;20417;-70
2022/01/29 07:29:30;;;;;;;8.27;2.00;;;20.80;35.30;;;;;;5051108;28;20451;-68
2022/01/29 07:31:56;;;;;;;7.93;1.80;;;20.80;35.20;;;;;;5050869;28;20397;-67
2022/01/29 07:34:23;;;;;;;6.43;1.83;;;20.80;35.30;;;;;;5050269;28;20389;-70
2022/01/29 07:36:50;;;;;;;7.47;2.17;;;20.70;35.00;;;;;;5050854;28;20439;-67
2022/01/29 07:39:15;;;;;;;4.95;1.80;;;20.80;35.30;;;;;;5052220;28;20390;-66
2022/01/29 07:41:41;;;;;;;6.90;2.00;;;20.70;35.10;;;;;;5054695;28;20404;-66
2022/01/29 07:44:07;;;;;;;4.28;1.80;;;20.80;35.30;;;;;;5054308;28;20790;-66
2022/01/29 07:46:32;;;;;;;9.00;2.30;;;20.80;35.30;;;;;;5054011;28;20471;-63
2022/01/29 07:48:58;;;;;;;5.60;1.67;;;20.80;35.20;;;;;;5053464;28;20444;-67
2022/01/29 07:51:24;;;;;;;5.30;1.60;;;20.80;35.10;;;;;;5053315;28;20510;-66
2022/01/29 07:53:49;;;;;;;5.50;1.90;;;20.80;35.10;;;;;;5053114;28;20877;-67
2022/01/29 07:56:15;;;;;;;4.30;1.70;;;20.80;35.00;;;;;;5050153;28;20817;-66
2022/01/29 07:58:40;;;;;;;4.55;1.80;;;20.80;34.90;;;;;;5053179;28;20394;-68
2022/01/29 08:01:06;;;;;;;4.27;1.80;;;20.80;34.90;;;;;;5053673;28;20386;-67
2022/01/29 08:03:32;;;;;;;4.50;1.63;;;20.80;35.00;;;;;;5035344;28;20397;-66
2022/01/29 08:05:57;;;;;;;3.53;1.70;;;20.80;35.10;;;;;;5053092;28;20393;-67
2022/01/29 08:08:23;;;;;;;3.73;1.40;;;20.80;34.80;;;;;;5052485;28;20951;-68
2022/01/29 08:10:48;;;;;;;2.92;1.42;;;20.80;34.90;;;;;;5052908;28;20390;-67
2022/01/29 08:13:14;;;;;;;4.10;1.67;;;20.90;34.90;;;;;;5051581;28;20451;-66
2022/01/29 08:15:40;;;;;;;3.33;1.55;;;20.90;34.80;;;;;;5052739;28;20419;-68
2022/01/29 08:18:06;;;;;;;6.03;1.55;;;20.80;34.90;;;;;;5052671;28;20382;-69
2022/01/29 08:20:32;;;;;;;2.70;1.55;;;20.80;34.90;;;;;;5052896;28;20386;-76
2022/01/29 08:22:58;;;;;;;3.30;1.50;;;20.90;34.80;;;;;;5035951;28;20468;-69
2022/01/29 08:25:24;;;;;;;4.03;1.52;;;20.90;34.70;;;;;;5054029;28;20528;-67
2022/01/29 08:27:50;;;;;;;3.30;1.30;;;20.80;34.70;;;;;;5035735;28;20382;-65
2022/01/29 08:30:16;;;;;;;4.15;2.03;;;20.80;34.70;;;;;;5053035;28;20398;-65
2022/01/29 08:32:48;;;;;;;5.07;2.10;;;20.80;35.20;;;;;;5053507;28;20381;-70
2022/01/29 08:35:15;;;;;;;3.83;1.70;;;20.90;35.60;;;;;;5053244;28;20405;-67
2022/01/29 08:37:41;;;;;;;6.35;2.10;;;20.90;36.10;;;;;;5050262;28;20398;-70
2022/01/29 08:40:08;;;;;;;6.00;2.10;;;20.90;36.60;;;;;;5051639;28;20388;-64
2022/01/29 08:42:34;;;;;;;4.70;1.70;;;21.00;36.40;;;;;;5049887;28;20401;-66
2022/01/29 08:45:01;;;;;;;4.78;2.30;;;21.00;37.00;;;;;;5035069;28;20393;-71
2022/01/29 08:47:26;;;;;;;5.17;1.80;;;21.10;36.90;;;;;;5052632;28;20852;-67
2022/01/29 08:49:52;;;;;;;5.72;1.85;;;21.10;36.70;;;;;;5051786;28;20466;-80
2022/01/29 08:52:19;;;;;;;6.07;2.00;;;21.20;36.50;;;;;;5048599;28;20447;-75
2022/01/29 08:54:44;;;;;;;5.55;1.98;;;21.20;36.30;;;;;;5052408;28;20413;-75
2022/01/29 08:57:10;;;;;;;3.67;1.70;;;21.20;36.20;;;;;;5048713;28;20797;-67
2022/01/29 08:59:36;;;;;;;5.57;1.88;;;21.20;36.60;;;;;;5048477;28;20421;-68
2022/01/29 09:02:02;;;;;;;4.53;1.80;;;21.20;36.40;;;;;;5051236;28;20389;-66
2022/01/29 09:04:27;;;;;;;4.82;1.95;;;21.20;35.80;;;;;;5034243;28;20393;-67
2022/01/29 09:06:53;;;;;;;5.75;1.90;;;21.20;37.00;;;;;;5029337;28;20480;-67
2022/01/29 09:09:24;;;;;;;3.10;1.45;;;21.30;37.10;;;;;;5052523;28;20397;-67
2022/01/29 09:11:51;;;;;;;3.15;1.50;;;21.30;36.90;;;;;;5046964;28;20905;-68
2022/01/29 09:14:17;;;;;;;4.15;1.75;;;21.30;36.50;;;;;;5033522;28;20401;-67
2022/01/29 09:16:43;;;;;;;5.07;1.60;;;21.30;36.30;;;;;;5052022;28;20393;-70
2022/01/29 09:19:09;;;;;;;4.35;1.77;;;21.20;36.30;;;;;;5052830;28;20853;-72
2022/01/29 09:21:35;;;;;;;5.23;1.67;;;21.20;36.10;;;;;;5052575;28;20408;-68
2022/01/29 09:24:01;;;;;;;2.88;1.60;;;21.20;35.90;;;;;;5052306;28;20386;-69
2022/01/29 09:26:27;;;;;;;4.65;1.90;;;21.20;35.50;;;;;;5040625;28;20424;-68
2022/01/29 09:28:52;;;;;;;4.90;1.70;;;21.20;35.30;;;;;;5048509;28;20849;-66
2022/01/29 09:31:18;;;;;;;3.90;1.50;;;21.10;35.10;;;;;;5032404;28;20528;-68
2022/01/29 09:33:44;;;;;;;4.43;1.60;;;21.10;34.90;;;;;;5050368;28;20425;-69
2022/01/29 09:36:10;;;;;;;2.30;1.50;;;21.10;34.80;;;;;;5050204;28;20445;-67
2022/01/29 09:38:36;;;;;;;2.53;1.40;;;21.10;34.70;;;;;;5049884;28;20424;-68
2022/01/29 09:41:03;;;;;;;3.35;1.58;;;21.10;34.50;;;;;;5050026;28;20393;-67
2022/01/29 09:43:32;;;;;;;3.30;1.45;;;21.10;34.50;;;;;;5031608;28;20393;-69
2022/01/29 09:45:57;;;;;;;2.50;1.58;;;21.10;34.40;;;;;;5041051;28;20393;-67
2022/01/29 09:48:25;;;;;;;3.10;1.75;;;21.10;34.30;;;;;;5048104;28;20381;-66
2022/01/29 09:50:52;;;;;;;4.10;1.43;;;21.10;34.20;;;;;;5050130;28;20421;-71
2022/01/29 09:53:19;;;;;;;3.25;1.42;;;21.10;34.10;;;;;;5031710;28;20492;-69
2022/01/29 09:55:46;;;;;;;3.72;1.30;;;21.10;34.00;;;;;;5031992;28;20897;-67
2022/01/29 09:58:12;;;;;;;2.95;1.52;;;21.10;33.90;;;;;;5049678;28;20480;-67
2022/01/29 10:00:39;;;;;;;2.60;1.50;;;21.10;33.80;;;;;;5046783;28;22190;-70
2022/01/29 10:03:14;;;;;;;2.60;1.20;;;21.10;33.80;;;;;;5029465;28;20411;-70
2022/01/29 10:05:42;;;;;;;2.53;1.30;;;21.10;33.70;;;;;;5047764;28;20392;-68
2022/01/29 10:08:09;;;;;;;2.85;1.50;;;21.10;33.70;;;;;;5049715;28;20480;-66
2022/01/29 10:10:39;;;;;;;2.40;1.30;;;21.10;33.70;;;;;;5049823;28;21026;-69
2022/01/29 10:13:28;;;;;;;3.05;1.65;;;21.10;33.70;;;;;;5049383;28;20389;-68
2022/01/29 10:16:06;;;;;;;2.17;1.38;;;21.10;33.50;;;;;;5037857;28;20428;-67
2022/01/29 10:18:33;;;;;;;2.30;1.40;;;21.10;33.50;;;;;;5049155;28;20904;-68
2022/01/29 10:21:20;;;;;;;2.08;1.27;;;21.10;33.40;;;;;;5046999;28;20484;-67
2022/01/29 10:23:46;;;;;;;2.00;1.20;;;21.10;33.30;;;;;;5047961;28;20940;-66
2022/01/29 10:26:28;;;;;;;2.65;1.40;;;21.10;33.30;;;;;;5049408;28;20394;-66
2022/01/29 10:28:55;;;;;;;2.30;1.30;;;21.10;33.20;;;;;;5048322;28;20385;-67
2022/01/29 10:31:21;;;;;;;2.78;1.40;;;21.10;33.20;;;;;;5049350;28;20424;-68
2022/01/29 10:33:47;;;;;;;1.83;1.30;;;21.00;33.10;;;;;;5049439;28;20866;-77
2022/01/29 10:36:18;;;;;;;2.83;1.40;;;20.90;33.20;;;;;;5048999;28;20424;-67
2022/01/29 10:38:43;;;;;;;2.50;1.30;;;20.90;33.20;;;;;;5052173;28;20391;-68
2022/01/29 10:41:28;;;;;;;2.08;1.23;;;21.00;33.20;;;;;;5049260;28;20397;-68
2022/01/29 10:44:00;;;;;;;2.35;1.35;;;21.10;33.20;;;;;;5048485;28;20500;-66
2022/01/29 10:46:32;;;;;;;2.72;1.33;;;21.10;33.00;;;;;;5029526;28;20809;-68
2022/01/29 10:49:00;;;;;;;2.10;1.20;;;21.10;33.00;;;;;;5048962;28;20401;-67
2022/01/29 10:51:26;;;;;;;2.58;1.20;;;21.20;33.00;;;;;;5031229;28;20402;-67
2022/01/29 10:53:53;;;;;;;2.10;1.30;;;21.10;32.90;;;;;;5048983;28;20397;-67
2022/01/29 10:56:20;;;;;;;2.05;1.40;;;21.10;32.90;;;;;;5046013;28;20463;-68
2022/01/29 10:58:50;;;;;;;2.25;1.30;;;21.10;32.80;;;;;;5030733;28;20753;-68
2022/01/29 11:01:15;;;;;;;2.30;1.30;;;20.90;33.20;;;;;;5048700;28;20393;-67
2022/01/29 11:03:43;;;;;;;4.33;1.40;;;20.90;33.50;;;;;;5048947;28;20508;-66
2022/01/29 11:06:11;;;;;;;2.60;1.30;;;20.90;33.30;;;;;;5049114;28;20396;-67
2022/01/29 11:08:40;;;;;;;2.03;1.20;;;20.90;33.10;;;;;;5048534;28;20781;-67
2022/01/29 11:11:11;;;;;;;2.30;1.25;;;21.00;33.10;;;;;;5048936;28;20777;-67
2022/01/29 11:13:37;;;;;;;2.30;1.27;;;21.00;33.10;;;;;;5050876;28;20381;-69
2022/01/29 11:16:04;;;;;;;2.75;1.42;;;20.90;33.10;;;;;;5052924;28;20417;-66
2022/01/29 11:18:34;;;;;;;2.10;1.20;;;20.80;33.50;;;;;;5035090;28;20734;-66
2022/01/29 11:21:01;;;;;;;2.55;1.30;;;20.90;33.70;;;;;;5050235;28;20412;-67
2022/01/29 11:23:29;;;;;;;3.33;1.00;;;20.90;33.90;;;;;;5046057;28;20880;-67
2022/01/29 11:25:56;;;;;;;1.65;1.10;;;20.90;33.90;;;;;;5050689;28;20452;-68
2022/01/29 11:28:26;;;;;;;2.08;1.27;;;20.90;33.80;;;;;;5032952;28;20440;-68
2022/01/29 11:31:13;;;;;;;2.22;1.30;;;20.90;33.90;;;;;;5050078;28;20484;-67
2022/01/29 11:33:57;;;;;;;2.85;1.10;;;21.00;33.70;;;;;;5052362;28;20430;-67
2022/01/29 11:36:49;;;;;;;2.58;1.20;;;20.90;34.10;;;;;;5050495;28;20917;-67
2022/01/29 11:39:21;;;;;;;2.22;1.15;;;20.90;34.00;;;;;;5052642;28;20386;-65
2022/01/29 11:42:15;;;;;;;2.15;1.00;;;21.00;34.60;;;;;;5050063;28;20404;-67
2022/01/29 11:44:43;;;;;;;2.50;1.20;;;21.00;33.70;;;;;;5045906;28;20732;-70
2022/01/29 11:47:38;;;;;;;3.20;1.20;;;20.90;33.60;;;;;;5030395;28;20440;-68
2022/01/29 11:50:18;;;;;;;2.47;1.33;;;20.90;33.50;;;;;;5025846;28;20417;-68
2022/01/29 11:52:55;;;;;;;2.40;1.23;;;21.00;33.40;;;;;;5033713;28;20462;-68
2022/01/29 11:55:34;;;;;;;2.97;1.33;;;21.00;33.30;;;;;;5034700;28;20406;-71
2022/01/29 11:58:26;;;;;;;2.10;1.20;;;21.00;33.30;;;;;;5035221;28;20393;-73
2022/01/29 12:00:56;;;;;;;2.40;1.30;;;21.00;33.20;;;;;;5049486;28;20486;-70
2022/01/29 12:03:44;;;;;;;3.00;1.40;;;21.00;33.10;;;;;;5034924;28;20488;-68
2022/01/29 12:06:28;;;;;;;2.90;1.60;;;21.00;33.10;;;;;;5020330;28;20426;-75
2022/01/29 12:09:07;;;;;;;2.70;1.50;;;21.10;33.10;;;;;;5036450;28;20398;-68
2022/01/29 12:11:35;;;;;;;2.80;1.70;;;21.10;33.00;;;;;;5035809;28;20389;-68
2022/01/29 12:14:13;;;;;;;3.60;1.60;;;21.00;32.70;;;;;;5035837;28;20421;-72
2022/01/29 12:16:49;;;;;;;4.18;1.50;;;21.00;33.20;;;;;;5036115;28;20421;-68
2022/01/29 12:19:42;;;;;;;3.15;1.70;;;21.00;33.10;;;;;;5035672;28;20390;-76
2022/01/29 12:22:13;;;;;;;3.60;1.70;;;21.00;33.00;;;;;;5054414;28;20394;-68
2022/01/29 12:24:42;;;;;;;3.25;1.73;;;21.00;32.90;;;;;;5034423;28;20874;-69
2022/01/29 12:27:08;;;;;;;4.63;1.75;;;20.90;33.20;;;;;;5035847;28;20472;-68
2022/01/29 12:29:34;;;;;;;5.95;2.10;;;20.80;34.30;;;;;;5053175;28;20999;-72
2022/01/29 12:32:01;;;;;;;5.18;1.77;;;20.80;34.60;;;;;;5053350;28;20440;-73
2022/01/29 12:34:30;;;;;;;4.15;1.77;;;20.90;34.70;;;;;;5052986;28;20769;-69
2022/01/29 12:37:13;;;;;;;3.67;2.10;;;20.90;35.00;;;;;;5034489;28;20496;-71
2022/01/29 12:39:41;;;;;;;3.80;2.00;;;21.00;35.10;;;;;;5025991;28;20392;-68
2022/01/29 12:44:53;;;;;;;3.67;1.80;;;21.00;35.30;;;;;;5052584;28;20396;-68
2022/01/29 12:47:26;;;;;;;3.60;1.95;;;21.00;35.00;;;;;;5053210;28;20865;-72
2022/01/29 12:49:52;;;;;;;3.87;2.10;;;21.00;35.80;;;;;;5052493;28;20512;-69
2022/01/29 12:52:18;;;;;;;4.15;2.10;;;21.10;36.30;;;;;;5034799;28;20425;-69
2022/01/29 12:54:58;;;;;;;4.67;1.83;;;21.10;36.40;;;;;;5034397;28;20951;-68
2022/01/29 12:57:25;;;;;;;4.53;2.10;;;21.20;36.50;;;;;;5052888;28;20397;-68
2022/01/29 12:59:51;;;;;;;4.18;2.20;;;21.20;36.40;;;;;;5035670;28;20397;-68
2022/01/29 13:02:20;;;;;;;3.80;1.90;;;21.10;36.60;;;;;;5034901;28;20447;-74
2022/01/29 13:04:47;;;;;;;3.97;1.92;;;21.20;36.50;;;;;;5034675;28;20484;-68